Airfield :
LOGIN :

Register | Disclaimer

   EN    FR    IT 

 










Legend :    VFR   Marginal VFR   IFR   Intensive IFR   Very Intensive IFR
Visi :
Ceiling :
>= 8 km
>= 3000ft
5 to 8 km
1000 to 3000 ft
1500m to 5 km
500 to 1000 ft
800 to 1500m
200 to 500 ft
< 800m
< 200 ft
Symbols :   Thunderstorms  Fog  Heavy snow  Heavy precipitations  Wind > 20 kt
SIGMETs :     Misc.  Thunderstorms  Icing  Turbulence  Mountain Waves  Volcanic Ashes







- Airport Elevation : 765 ft


LOAV - Vöslau

CURRENT METAR :
  • 251100Z 14008KT 20KM FEW020CU BKN030CU 16/09

EXPIRED METARs :
  • 251000Z 12007KT 20KM FEW010ST BKN030SC 15/09
  • 250900Z VRB02KT 8000 FEW010ST SCT030CU BKN040SC 15/11

TAF TAF LOAV
Valid from the 25 at 09:00 until the 25 at 18:00 UTC


250800Z 2509/2518 15005KT 9999 FEW030 BKN040
TEMPO 2509/2511 VRB02KT SCT010 BKN040
No reported NOTAMs for that airfield.



MET'MAP, your aeronautical weather chart ! - Copyright ORBIFLY December 2007 - Disclaimer

ORBIFLY MET'MAP TEAM :

Programming & Development : Alexandra Zaïnal
Concept & Development : Baudouin d'Aumeries
Co-Development & Prog : Marc-Olivier Méhu
Technical & hardware support : Manuel Goepfert

Contact : metmap@orbifly.com




SOURCES & CREDITS :

   NOAA